Raymore, Missouri
Current Conditions -  °F | °C
As of 9:53 PM on Friday 24 Oct 2014 (Local Time) from KLXT Reporting Station
Clear Clear  
Wind Chill: 65°   Ceiling: Unl
Heat Index: 65°   Visibility: 10mi
Dew Point: 60°   Wind: 8mph
Humidity: 84%   Direction: 230°SW
Pressure: 30"   Gusts: NA
Location:  38.8°N, 94.46°W
Report Text: KLXT 250253Z AUTO 23007KT 10SM CLR 18/16 A3000 RMK AO2 SLP155 T01830156 53014
Loading
Personal Weather Stations






























Interactive Weather Map New forecast layout! Learn more

10-Day Weather Forecast

Advertisements
Track Severe Weather on mobile